Pagina principale
METAR-TAF:

METAR-TAF

Aeroporti :

Montichiari

Brescia, Italia

latitudine: 45-24-02N, longitudine: 010-18-59E, altezza: 104 m

Osservazione

Il bollettino è stato emesso 1 ora e 1 minuti fa, alle 19:50 UTC
Vento 12 kt da est/sud-est
Temperature 21°C
Umidità 60%
Pressione 1017 hPa
Visibilità 10 km o più
Nubi sparse ad un'altezza di 5000 ft

METAR: LIPO 221950Z 12012KT 9999 SCT050 21/13 Q1017

Ora: 22:51 (20:51 UTC)

Previsione

Il bollettino è stato emesso 3 ore e 51 minuti fa, alle 17:00 UTC
Previsione valida dal 22 alle 18 UTC al 23 alle 18 UTC
Vento 12 kt da sud-est
Visibilità 10 km o più
Nubi sparse ad un'altezza di 5000 ft
Evoluzione graduale
dal 22 alle 20 UTC al 22 alle 22 UTC
Vento 5 kt da direzioni variabili

TAF: LIPO 221700Z 2218/2318 13012KT 9999 SCT050 BECMG 2220/2222 VRB05KT

Osservazioni e previsioni meteorologiche di più di 4000 aeroporti (messaggi METAR e TAF).

Le stazioni disponibili sono rappresentate dai dischi gialli e rossi sulla carta.

Puntare il mouse per vedere il nome della stazione.

Clicca sopra per visualizzare le osservazioni e previsioni meteorologiche.

Per cambiare la mappa : fare clic sui pulsanti verdi con una croce nera per ingrandire, il pulsante verde con un trattino per diminuire, o sulla freccia verde per le mappe adiacenti.


METAR-TAF: